This is the latest recevied weather packets stored in our database for station/object EA3DJ-10. If no packets are shown the sender has not sent any weather packets the latest 10 day(s).
| Time | Temp. | Humidity | Pressure | Rain* | Wind** | Luminosity | Snow |
|---|---|---|---|---|---|---|---|
| 1788638101 | 28.89° C | 49% | 1022.7 hPa | - | - | - | - |
| 1788636900 | 28.89° C | 47% | 1022.8 hPa | - | - | - | - |
| 1788635700 | 28.33° C | 46% | 1022.7 hPa | - | - | - | - |
| 1788634500 | 28.33° C | 45% | 1022.7 hPa | - | - | - | - |
| 1788633677 | 28.33° C | 44% | 1022.6 hPa | - | - | - | - |
| 1788632477 | 27.22° C | 43% | 1022.4 hPa | - | - | - | - |
| 1788631277 | 27.22° C | 44% | 1022.4 hPa | - | - | - | - |
| 1788630077 | 27.78° C | 47% | 1022.4 hPa | - | - | - | - |
| 1788628877 | 28.89° C | 51% | 1022.3 hPa | - | - | - | - |
| 1788627677 | 28.89° C | 51% | 1022.3 hPa | - | - | - | - |
| 1788626477 | 28.89° C | 50% | 1022.2 hPa | - | - | - | - |
| 1788625277 | 28.89° C | 49% | 1022.2 hPa | - | - | - | - |
| 1788624076 | 28.89° C | 48% | 1022.3 hPa | - | - | - | - |
| 1788622876 | 28.33° C | 47% | 1022.3 hPa | - | - | - | - |
| 1788621676 | 28.33° C | 47% | 1022.5 hPa | - | - | - | - |
| 1788620476 | 28.33° C | 45% | 1022.6 hPa | - | - | - | - |
| 1788619276 | 28.33° C | 45% | 1022.8 hPa | - | - | - | - |
| 1788618076 | 28.33° C | 45% | 1022.9 hPa | - | - | - | - |
| 1788616876 | 28.33° C | 44% | 1023 hPa | - | - | - | - |
| 1788615676 | 27.78° C | 44% | 1023.1 hPa | - | - | - | - |
| 1788614475 | 27.78° C | 43% | 1023.2 hPa | - | - | - | - |
| 1788613275 | 27.78° C | 43% | 1023.2 hPa | - | - | - | - |
| 1788612075 | 26.11° C | 42% | 1023.4 hPa | - | - | - | - |
| 1788610875 | 26.11° C | 46% | 1023.5 hPa | - | - | - | - |
| 1788609674 | 27.78° C | 51% | 1023.5 hPa | - | - | - | - |
* Rain since midnight (hover to see other rain measurements)
** Current wind speed in m/s (hover to see current wind gust speed)